sensor_id;sensor_type;location;lat;lon;timestamp;P1;durP1;ratioP1;P2;durP2;ratioP2
10260;SDS011;5175;42.606;23.388;2023-04-01T00:00:24;13.53;;;7.80;;
10260;SDS011;5175;42.606;23.388;2023-04-01T00:02:51;9.43;;;7.47;;
10260;SDS011;5175;42.606;23.388;2023-04-01T00:05:17;10.83;;;8.43;;
10260;SDS011;5175;42.606;23.388;2023-04-01T00:07:44;9.47;;;7.40;;
10260;SDS011;5175;42.606;23.388;2023-04-01T00:10:12;11.07;;;7.30;;
10260;SDS011;5175;42.606;23.388;2023-04-01T00:12:40;12.03;;;6.57;;
10260;SDS011;5175;42.606;23.388;2023-04-01T00:15:07;9.27;;;6.43;;
10260;SDS011;5175;42.606;23.388;2023-04-01T00:17:37;12.00;;;6.77;;
10260;SDS011;5175;42.606;23.388;2023-04-01T00:20:04;10.30;;;6.47;;
10260;SDS011;5175;42.606;23.388;2023-04-01T00:22:33;11.20;;;6.80;;
10260;SDS011;5175;42.606;23.388;2023-04-01T00:25:00;11.33;;;7.03;;
10260;SDS011;5175;42.606;23.388;2023-04-01T00:27:27;11.97;;;6.47;;
10260;SDS011;5175;42.606;23.388;2023-04-01T00:29:54;9.43;;;6.63;;
10260;SDS011;5175;42.606;23.388;2023-04-01T00:32:20;7.10;;;5.80;;
10260;SDS011;5175;42.606;23.388;2023-04-01T00:34:50;10.57;;;6.37;;
10260;SDS011;5175;42.606;23.388;2023-04-01T00:37:18;8.90;;;5.70;;
10260;SDS011;5175;42.606;23.388;2023-04-01T00:39:46;9.23;;;5.53;;
10260;SDS011;5175;42.606;23.388;2023-04-01T00:42:13;12.30;;;5.83;;
10260;SDS011;5175;42.606;23.388;2023-04-01T00:44:40;10.07;;;5.77;;
10260;SDS011;5175;42.606;23.388;2023-04-01T00:47:07;9.00;;;5.93;;
10260;SDS011;5175;42.606;23.388;2023-04-01T00:49:35;7.47;;;5.67;;
10260;SDS011;5175;42.606;23.388;2023-04-01T00:52:07;8.97;;;5.43;;
10260;SDS011;5175;42.606;23.388;2023-04-01T00:54:37;6.80;;;5.13;;
10260;SDS011;5175;42.606;23.388;2023-04-01T00:57:08;9.80;;;5.27;;
10260;SDS011;5175;42.606;23.388;2023-04-01T00:59:39;7.03;;;4.80;;
10260;SDS011;5175;42.606;23.388;2023-04-01T01:02:10;5.70;;;4.70;;
10260;SDS011;5175;42.606;23.388;2023-04-01T01:04:38;9.53;;;4.07;;
10260;SDS011;5175;42.606;23.388;2023-04-01T01:07:09;8.60;;;4.70;;
10260;SDS011;5175;42.606;23.388;2023-04-01T01:09:48;7.50;;;4.40;;
10260;SDS011;5175;42.606;23.388;2023-04-01T01:12:23;5.93;;;4.20;;
10260;SDS011;5175;42.606;23.388;2023-04-01T01:14:59;6.03;;;4.17;;
10260;SDS011;5175;42.606;23.388;2023-04-01T01:17:35;7.70;;;4.30;;
10260;SDS011;5175;42.606;23.388;2023-04-01T01:23:26;5.37;;;3.73;;
10260;SDS011;5175;42.606;23.388;2023-04-01T01:26:22;6.97;;;4.90;;
10260;SDS011;5175;42.606;23.388;2023-04-01T01:29:05;6.60;;;4.57;;
10260;SDS011;5175;42.606;23.388;2023-04-01T01:31:41;7.50;;;5.13;;
10260;SDS011;5175;42.606;23.388;2023-04-01T01:34:15;10.93;;;6.37;;
10260;SDS011;5175;42.606;23.388;2023-04-01T01:36:50;7.03;;;5.13;;
10260;SDS011;5175;42.606;23.388;2023-04-01T01:39:21;7.73;;;4.90;;
10260;SDS011;5175;42.606;23.388;2023-04-01T01:41:53;7.27;;;5.17;;
10260;SDS011;5175;42.606;23.388;2023-04-01T01:44:22;6.27;;;4.10;;
10260;SDS011;5175;42.606;23.388;2023-04-01T01:46:50;7.73;;;5.00;;
10260;SDS011;5175;42.606;23.388;2023-04-01T01:49:17;6.10;;;3.97;;
10260;SDS011;5175;42.606;23.388;2023-04-01T01:51:45;6.93;;;4.20;;
10260;SDS011;5175;42.606;23.388;2023-04-01T01:54:14;7.77;;;4.00;;
10260;SDS011;5175;42.606;23.388;2023-04-01T01:56:42;5.97;;;3.93;;
10260;SDS011;5175;42.606;23.388;2023-04-01T01:59:13;8.73;;;4.60;;
10260;SDS011;5175;42.606;23.388;2023-04-01T02:01:42;5.70;;;3.73;;
10260;SDS011;5175;42.606;23.388;2023-04-01T02:04:12;6.33;;;4.30;;
10260;SDS011;5175;42.606;23.388;2023-04-01T02:06:42;6.33;;;4.30;;
10260;SDS011;5175;42.606;23.388;2023-04-01T02:09:15;13.00;;;4.20;;
10260;SDS011;5175;42.606;23.388;2023-04-01T02:11:43;7.83;;;4.63;;
10260;SDS011;5175;42.606;23.388;2023-04-01T02:14:15;7.80;;;4.90;;
10260;SDS011;5175;42.606;23.388;2023-04-01T02:16:45;7.47;;;4.50;;
10260;SDS011;5175;42.606;23.388;2023-04-01T02:19:17;7.87;;;4.23;;
10260;SDS011;5175;42.606;23.388;2023-04-01T02:21:47;6.27;;;4.33;;
10260;SDS011;5175;42.606;23.388;2023-04-01T02:24:19;8.23;;;4.47;;
10260;SDS011;5175;42.606;23.388;2023-04-01T02:26:49;8.27;;;4.33;;
10260;SDS011;5175;42.606;23.388;2023-04-01T02:29:19;7.97;;;3.80;;
10260;SDS011;5175;42.606;23.388;2023-04-01T02:31:47;7.10;;;3.77;;
10260;SDS011;5175;42.606;23.388;2023-04-01T02:34:15;8.20;;;4.03;;
10260;SDS011;5175;42.606;23.388;2023-04-01T02:36:42;8.07;;;3.60;;
10260;SDS011;5175;42.606;23.388;2023-04-01T02:39:10;9.03;;;5.43;;
10260;SDS011;5175;42.606;23.388;2023-04-01T02:41:41;9.13;;;4.40;;
10260;SDS011;5175;42.606;23.388;2023-04-01T02:44:08;5.87;;;4.07;;
10260;SDS011;5175;42.606;23.388;2023-04-01T02:46:36;8.00;;;4.30;;
10260;SDS011;5175;42.606;23.388;2023-04-01T02:49:03;6.30;;;4.13;;
10260;SDS011;5175;42.606;23.388;2023-04-01T02:51:31;7.20;;;4.43;;
10260;SDS011;5175;42.606;23.388;2023-04-01T02:53:58;6.17;;;3.70;;
10260;SDS011;5175;42.606;23.388;2023-04-01T02:56:24;7.23;;;3.67;;
10260;SDS011;5175;42.606;23.388;2023-04-01T02:58:53;6.70;;;3.47;;
10260;SDS011;5175;42.606;23.388;2023-04-01T03:01:20;4.90;;;3.10;;
10260;SDS011;5175;42.606;23.388;2023-04-01T03:03:47;5.00;;;1.90;;
10260;SDS011;5175;42.606;23.388;2023-04-01T03:06:15;5.93;;;2.00;;
10260;SDS011;5175;42.606;23.388;2023-04-01T03:08:42;4.00;;;1.80;;
10260;SDS011;5175;42.606;23.388;2023-04-01T03:11:09;8.33;;;2.90;;
10260;SDS011;5175;42.606;23.388;2023-04-01T03:13:37;4.10;;;1.67;;
10260;SDS011;5175;42.606;23.388;2023-04-01T03:16:05;5.07;;;2.13;;
10260;SDS011;5175;42.606;23.388;2023-04-01T03:18:32;3.63;;;1.83;;
10260;SDS011;5175;42.606;23.388;2023-04-01T03:21:11;4.27;;;1.73;;
10260;SDS011;5175;42.606;23.388;2023-04-01T03:23:39;5.70;;;1.70;;
10260;SDS011;5175;42.606;23.388;2023-04-01T03:26:06;3.67;;;1.50;;
10260;SDS011;5175;42.606;23.388;2023-04-01T03:28:32;3.93;;;1.50;;
10260;SDS011;5175;42.606;23.388;2023-04-01T03:30:59;5.43;;;1.80;;
10260;SDS011;5175;42.606;23.388;2023-04-01T03:33:27;9.33;;;5.87;;
10260;SDS011;5175;42.606;23.388;2023-04-01T03:35:54;10.93;;;6.00;;
10260;SDS011;5175;42.606;23.388;2023-04-01T03:38:21;11.63;;;6.77;;
10260;SDS011;5175;42.606;23.388;2023-04-01T03:40:47;8.97;;;5.80;;
10260;SDS011;5175;42.606;23.388;2023-04-01T03:43:14;6.63;;;4.83;;
10260;SDS011;5175;42.606;23.388;2023-04-01T03:45:43;8.43;;;5.63;;
10260;SDS011;5175;42.606;23.388;2023-04-01T03:48:10;9.10;;;5.30;;
10260;SDS011;5175;42.606;23.388;2023-04-01T03:50:38;10.50;;;5.30;;
10260;SDS011;5175;42.606;23.388;2023-04-01T03:53:05;10.80;;;5.30;;
10260;SDS011;5175;42.606;23.388;2023-04-01T03:55:32;7.13;;;4.97;;
10260;SDS011;5175;42.606;23.388;2023-04-01T03:57:59;6.40;;;4.70;;
10260;SDS011;5175;42.606;23.388;2023-04-01T04:00:27;6.13;;;4.80;;
10260;SDS011;5175;42.606;23.388;2023-04-01T04:02:54;9.37;;;4.93;;
10260;SDS011;5175;42.606;23.388;2023-04-01T04:05:21;9.07;;;5.10;;
10260;SDS011;5175;42.606;23.388;2023-04-01T04:07:49;6.60;;;4.60;;
10260;SDS011;5175;42.606;23.388;2023-04-01T04:10:16;7.10;;;5.17;;
10260;SDS011;5175;42.606;23.388;2023-04-01T04:12:43;9.73;;;4.80;;
10260;SDS011;5175;42.606;23.388;2023-04-01T04:15:10;9.00;;;4.90;;
10260;SDS011;5175;42.606;23.388;2023-04-01T04:17:37;8.23;;;4.87;;
10260;SDS011;5175;42.606;23.388;2023-04-01T04:20:04;6.17;;;4.23;;
10260;SDS011;5175;42.606;23.388;2023-04-01T04:22:32;5.80;;;4.27;;
10260;SDS011;5175;42.606;23.388;2023-04-01T04:25:01;7.50;;;4.57;;
10260;SDS011;5175;42.606;23.388;2023-04-01T04:27:27;8.17;;;4.83;;
10260;SDS011;5175;42.606;23.388;2023-04-01T04:29:55;8.53;;;4.80;;
10260;SDS011;5175;42.606;23.388;2023-04-01T04:32:21;7.00;;;4.70;;
10260;SDS011;5175;42.606;23.388;2023-04-01T04:34:48;9.13;;;4.40;;
10260;SDS011;5175;42.606;23.388;2023-04-01T04:37:15;11.07;;;4.60;;
10260;SDS011;5175;42.606;23.388;2023-04-01T04:39:41;7.93;;;4.57;;
10260;SDS011;5175;42.606;23.388;2023-04-01T04:42:10;6.13;;;3.83;;
10260;SDS011;5175;42.606;23.388;2023-04-01T04:44:36;10.47;;;4.60;;
10260;SDS011;5175;42.606;23.388;2023-04-01T04:47:03;4.37;;;2.30;;
10260;SDS011;5175;42.606;23.388;2023-04-01T04:49:30;5.57;;;2.20;;
10260;SDS011;5175;42.606;23.388;2023-04-01T04:51:57;4.20;;;2.00;;
10260;SDS011;5175;42.606;23.388;2023-04-01T04:54:23;4.10;;;2.13;;
10260;SDS011;5175;42.606;23.388;2023-04-01T04:56:50;7.23;;;1.93;;
10260;SDS011;5175;42.606;23.388;2023-04-01T04:59:19;8.27;;;2.10;;
10260;SDS011;5175;42.606;23.388;2023-04-01T05:01:45;4.57;;;1.97;;
10260;SDS011;5175;42.606;23.388;2023-04-01T05:04:12;5.40;;;2.10;;
10260;SDS011;5175;42.606;23.388;2023-04-01T05:06:39;5.80;;;2.07;;
10260;SDS011;5175;42.606;23.388;2023-04-01T05:09:05;6.30;;;2.40;;
10260;SDS011;5175;42.606;23.388;2023-04-01T05:11:32;6.30;;;1.90;;
10260;SDS011;5175;42.606;23.388;2023-04-01T05:13:59;4.40;;;1.93;;
10260;SDS011;5175;42.606;23.388;2023-04-01T05:16:27;4.03;;;2.03;;
10260;SDS011;5175;42.606;23.388;2023-04-01T05:18:55;6.27;;;2.00;;
10260;SDS011;5175;42.606;23.388;2023-04-01T05:21:21;7.80;;;2.40;;
10260;SDS011;5175;42.606;23.388;2023-04-01T05:23:48;7.20;;;2.43;;
10260;SDS011;5175;42.606;23.388;2023-04-01T05:26:15;5.00;;;2.27;;
10260;SDS011;5175;42.606;23.388;2023-04-01T05:28:41;6.70;;;2.10;;
10260;SDS011;5175;42.606;23.388;2023-04-01T05:31:08;4.77;;;2.13;;
10260;SDS011;5175;42.606;23.388;2023-04-01T05:33:36;11.90;;;4.60;;
10260;SDS011;5175;42.606;23.388;2023-04-01T05:36:06;8.83;;;5.10;;
10260;SDS011;5175;42.606;23.388;2023-04-01T05:38:34;12.37;;;5.60;;
10260;SDS011;5175;42.606;23.388;2023-04-01T05:41:02;9.43;;;6.43;;
10260;SDS011;5175;42.606;23.388;2023-04-01T05:43:29;8.83;;;5.73;;
10260;SDS011;5175;42.606;23.388;2023-04-01T05:45:55;12.73;;;6.40;;
10260;SDS011;5175;42.606;23.388;2023-04-01T05:48:22;6.80;;;5.07;;
10260;SDS011;5175;42.606;23.388;2023-04-01T05:50:50;12.10;;;6.40;;
10260;SDS011;5175;42.606;23.388;2023-04-01T05:53:17;11.63;;;6.00;;
10260;SDS011;5175;42.606;23.388;2023-04-01T05:55:44;10.07;;;6.20;;
10260;SDS011;5175;42.606;23.388;2023-04-01T05:58:11;10.60;;;6.20;;
10260;SDS011;5175;42.606;23.388;2023-04-01T06:00:38;8.53;;;5.10;;
10260;SDS011;5175;42.606;23.388;2023-04-01T06:03:05;10.40;;;5.47;;
10260;SDS011;5175;42.606;23.388;2023-04-01T06:05:35;8.37;;;5.00;;
10260;SDS011;5175;42.606;23.388;2023-04-01T06:08:09;10.40;;;6.30;;
10260;SDS011;5175;42.606;23.388;2023-04-01T06:10:40;8.43;;;5.80;;
10260;SDS011;5175;42.606;23.388;2023-04-01T06:13:18;12.30;;;6.60;;
10260;SDS011;5175;42.606;23.388;2023-04-01T06:15:59;11.40;;;6.47;;
10260;SDS011;5175;42.606;23.388;2023-04-01T06:18:45;9.00;;;5.80;;
10260;SDS011;5175;42.606;23.388;2023-04-01T06:21:27;11.40;;;6.13;;
10260;SDS011;5175;42.606;23.388;2023-04-01T06:24:10;11.30;;;6.77;;
10260;SDS011;5175;42.606;23.388;2023-04-01T06:26:57;10.83;;;6.70;;
10260;SDS011;5175;42.606;23.388;2023-04-01T06:29:47;27.67;;;14.43;;
10260;SDS011;5175;42.606;23.388;2023-04-01T06:32:31;18.83;;;10.87;;
10260;SDS011;5175;42.606;23.388;2023-04-01T06:38:14;8.33;;;5.67;;
10260;SDS011;5175;42.606;23.388;2023-04-01T06:40:55;7.53;;;5.33;;
10260;SDS011;5175;42.606;23.388;2023-04-01T06:43:34;11.83;;;5.77;;
10260;SDS011;5175;42.606;23.388;2023-04-01T06:46:15;12.13;;;5.77;;
10260;SDS011;5175;42.606;23.388;2023-04-01T06:48:55;8.13;;;5.10;;
10260;SDS011;5175;42.606;23.388;2023-04-01T06:51:36;9.13;;;5.13;;
10260;SDS011;5175;42.606;23.388;2023-04-01T06:54:12;9.90;;;4.67;;
10260;SDS011;5175;42.606;23.388;2023-04-01T06:56:45;9.03;;;4.90;;
10260;SDS011;5175;42.606;23.388;2023-04-01T06:59:17;11.73;;;5.60;;
10260;SDS011;5175;42.606;23.388;2023-04-01T07:01:47;11.90;;;4.97;;
10260;SDS011;5175;42.606;23.388;2023-04-01T07:04:18;9.63;;;5.30;;
10260;SDS011;5175;42.606;23.388;2023-04-01T07:06:50;8.27;;;5.53;;
10260;SDS011;5175;42.606;23.388;2023-04-01T07:09:20;8.60;;;5.07;;
10260;SDS011;5175;42.606;23.388;2023-04-01T07:11:51;14.00;;;5.73;;
10260;SDS011;5175;42.606;23.388;2023-04-01T07:14:24;7.20;;;4.80;;
10260;SDS011;5175;42.606;23.388;2023-04-01T07:16:56;13.50;;;5.43;;
10260;SDS011;5175;42.606;23.388;2023-04-01T07:19:27;8.33;;;5.27;;
10260;SDS011;5175;42.606;23.388;2023-04-01T07:21:58;11.87;;;5.57;;
10260;SDS011;5175;42.606;23.388;2023-04-01T07:24:32;10.40;;;5.43;;
10260;SDS011;5175;42.606;23.388;2023-04-01T07:27:02;9.80;;;5.23;;
10260;SDS011;5175;42.606;23.388;2023-04-01T07:29:29;9.97;;;5.20;;
10260;SDS011;5175;42.606;23.388;2023-04-01T07:35:13;8.40;;;5.10;;
10260;SDS011;5175;42.606;23.388;2023-04-01T07:37:53;6.90;;;5.87;;
10260;SDS011;5175;42.606;23.388;2023-04-01T07:40:32;9.93;;;6.33;;
10260;SDS011;5175;42.606;23.388;2023-04-01T07:43:13;13.03;;;6.10;;
10260;SDS011;5175;42.606;23.388;2023-04-01T07:45:51;10.23;;;6.30;;
10260;SDS011;5175;42.606;23.388;2023-04-01T07:48:30;10.60;;;5.93;;
10260;SDS011;5175;42.606;23.388;2023-04-01T07:51:06;9.87;;;5.90;;
10260;SDS011;5175;42.606;23.388;2023-04-01T07:53:41;8.57;;;5.53;;
10260;SDS011;5175;42.606;23.388;2023-04-01T07:56:14;11.43;;;6.13;;
10260;SDS011;5175;42.606;23.388;2023-04-01T07:58:51;11.60;;;5.93;;
10260;SDS011;5175;42.606;23.388;2023-04-01T08:01:30;10.47;;;6.13;;
10260;SDS011;5175;42.606;23.388;2023-04-01T08:06:53;13.23;;;5.60;;
10260;SDS011;5175;42.606;23.388;2023-04-01T08:09:29;10.03;;;6.20;;
10260;SDS011;5175;42.606;23.388;2023-04-01T08:12:08;9.03;;;5.73;;
10260;SDS011;5175;42.606;23.388;2023-04-01T08:14:51;12.53;;;6.20;;
10260;SDS011;5175;42.606;23.388;2023-04-01T08:17:28;8.77;;;5.70;;
10260;SDS011;5175;42.606;23.388;2023-04-01T08:20:05;10.10;;;5.40;;
10260;SDS011;5175;42.606;23.388;2023-04-01T08:22:41;11.00;;;5.93;;
10260;SDS011;5175;42.606;23.388;2023-04-01T08:25:10;10.80;;;6.10;;
10260;SDS011;5175;42.606;23.388;2023-04-01T08:27:44;11.87;;;5.77;;
10260;SDS011;5175;42.606;23.388;2023-04-01T08:30:16;8.20;;;5.07;;
10260;SDS011;5175;42.606;23.388;2023-04-01T08:32:46;8.63;;;5.40;;
10260;SDS011;5175;42.606;23.388;2023-04-01T08:35:18;10.40;;;5.83;;
10260;SDS011;5175;42.606;23.388;2023-04-01T08:37:53;12.43;;;4.90;;
10260;SDS011;5175;42.606;23.388;2023-04-01T08:40:29;8.50;;;6.13;;
10260;SDS011;5175;42.606;23.388;2023-04-01T08:43:07;7.87;;;5.63;;
10260;SDS011;5175;42.606;23.388;2023-04-01T08:45:50;8.90;;;4.93;;
10260;SDS011;5175;42.606;23.388;2023-04-01T08:48:38;10.73;;;6.33;;
10260;SDS011;5175;42.606;23.388;2023-04-01T08:51:27;9.03;;;4.73;;
10260;SDS011;5175;42.606;23.388;2023-04-01T08:54:22;7.03;;;4.70;;
10260;SDS011;5175;42.606;23.388;2023-04-01T08:57:04;6.73;;;4.27;;
10260;SDS011;5175;42.606;23.388;2023-04-01T09:02:43;6.22;;;4.15;;
10260;SDS011;5175;42.606;23.388;2023-04-01T09:05:38;9.90;;;4.80;;
10260;SDS011;5175;42.606;23.388;2023-04-01T09:08:28;11.13;;;4.40;;
10260;SDS011;5175;42.606;23.388;2023-04-01T09:11:06;7.75;;;4.13;;
10260;SDS011;5175;42.606;23.388;2023-04-01T09:14:06;9.35;;;4.93;;
10260;SDS011;5175;42.606;23.388;2023-04-01T09:16:47;6.38;;;3.90;;
10260;SDS011;5175;42.606;23.388;2023-04-01T09:19:34;8.20;;;4.28;;
10260;SDS011;5175;42.606;23.388;2023-04-01T09:22:21;7.30;;;4.32;;
10260;SDS011;5175;42.606;23.388;2023-04-01T09:24:59;8.18;;;3.95;;
10260;SDS011;5175;42.606;23.388;2023-04-01T09:27:44;6.30;;;4.07;;
10260;SDS011;5175;42.606;23.388;2023-04-01T09:33:22;7.32;;;3.92;;
10260;SDS011;5175;42.606;23.388;2023-04-01T09:36:11;7.45;;;4.20;;
10260;SDS011;5175;42.606;23.388;2023-04-01T09:38:49;7.97;;;3.83;;
10260;SDS011;5175;42.606;23.388;2023-04-01T09:41:27;6.88;;;3.75;;
10260;SDS011;5175;42.606;23.388;2023-04-01T09:44:02;7.13;;;3.80;;
10260;SDS011;5175;42.606;23.388;2023-04-01T09:46:43;8.45;;;3.63;;
10260;SDS011;5175;42.606;23.388;2023-04-01T09:49:29;11.95;;;4.72;;
10260;SDS011;5175;42.606;23.388;2023-04-01T09:52:20;7.63;;;3.80;;
10260;SDS011;5175;42.606;23.388;2023-04-01T09:55:06;6.17;;;2.40;;
10260;SDS011;5175;42.606;23.388;2023-04-01T09:58:01;9.40;;;3.60;;
10260;SDS011;5175;42.606;23.388;2023-04-01T10:03:54;11.93;;;4.63;;
10260;SDS011;5175;42.606;23.388;2023-04-01T10:07:16;6.57;;;4.10;;
10260;SDS011;5175;42.606;23.388;2023-04-01T10:16:26;6.60;;;4.10;;
10260;SDS011;5175;42.606;23.388;2023-04-01T10:19:14;9.73;;;4.50;;
10260;SDS011;5175;42.606;23.388;2023-04-01T10:25:11;8.10;;;3.85;;
10260;SDS011;5175;42.606;23.388;2023-04-01T10:30:57;8.77;;;4.17;;
10260;SDS011;5175;42.606;23.388;2023-04-01T10:36:54;10.10;;;4.33;;
10260;SDS011;5175;42.606;23.388;2023-04-01T10:45:53;6.95;;;2.03;;
10260;SDS011;5175;42.606;23.388;2023-04-01T10:48:56;8.68;;;2.03;;
10260;SDS011;5175;42.606;23.388;2023-04-01T10:54:55;4.82;;;1.92;;
10260;SDS011;5175;42.606;23.388;2023-04-01T11:10:39;6.93;;;1.93;;
10260;SDS011;5175;42.606;23.388;2023-04-01T11:13:47;6.95;;;2.10;;
10260;SDS011;5175;42.606;23.388;2023-04-01T11:16:52;8.17;;;2.10;;
10260;SDS011;5175;42.606;23.388;2023-04-01T11:22:50;6.73;;;2.33;;
10260;SDS011;5175;42.606;23.388;2023-04-01T11:25:54;4.83;;;2.07;;
10260;SDS011;5175;42.606;23.388;2023-04-01T11:28:42;6.90;;;2.40;;
10260;SDS011;5175;42.606;23.388;2023-04-01T11:31:31;6.90;;;2.80;;
10260;SDS011;5175;42.606;23.388;2023-04-01T11:34:11;7.07;;;2.03;;
10260;SDS011;5175;42.606;23.388;2023-04-01T11:36:49;4.57;;;1.75;;
10260;SDS011;5175;42.606;23.388;2023-04-01T11:39:24;6.43;;;2.77;;
10260;SDS011;5175;42.606;23.388;2023-04-01T11:42:01;5.03;;;2.20;;
10260;SDS011;5175;42.606;23.388;2023-04-01T11:44:43;7.67;;;2.30;;
10260;SDS011;5175;42.606;23.388;2023-04-01T11:47:22;6.60;;;2.27;;
10260;SDS011;5175;42.606;23.388;2023-04-01T11:50:15;5.17;;;2.60;;
10260;SDS011;5175;42.606;23.388;2023-04-01T11:52:56;3.27;;;2.07;;
10260;SDS011;5175;42.606;23.388;2023-04-01T11:55:36;2.63;;;1.93;;
10260;SDS011;5175;42.606;23.388;2023-04-01T11:58:21;2.90;;;2.10;;
10260;SDS011;5175;42.606;23.388;2023-04-01T12:01:08;3.30;;;2.07;;
10260;SDS011;5175;42.606;23.388;2023-04-01T12:07:03;4.30;;;2.57;;
10260;SDS011;5175;42.606;23.388;2023-04-01T12:09:41;5.53;;;3.17;;
10260;SDS011;5175;42.606;23.388;2023-04-01T12:12:17;5.50;;;3.40;;
10260;SDS011;5175;42.606;23.388;2023-04-01T12:14:54;5.70;;;2.80;;
10260;SDS011;5175;42.606;23.388;2023-04-01T12:17:30;4.27;;;2.60;;
10260;SDS011;5175;42.606;23.388;2023-04-01T12:20:24;6.30;;;3.40;;
10260;SDS011;5175;42.606;23.388;2023-04-01T12:23:06;5.77;;;3.20;;
10260;SDS011;5175;42.606;23.388;2023-04-01T12:28:41;6.67;;;3.47;;
10260;SDS011;5175;42.606;23.388;2023-04-01T12:31:25;8.27;;;3.40;;
10260;SDS011;5175;42.606;23.388;2023-04-01T12:34:10;5.60;;;3.47;;
10260;SDS011;5175;42.606;23.388;2023-04-01T12:36:56;5.60;;;2.90;;
10260;SDS011;5175;42.606;23.388;2023-04-01T12:39:41;6.53;;;3.40;;
10260;SDS011;5175;42.606;23.388;2023-04-01T12:42:21;5.53;;;3.67;;
10260;SDS011;5175;42.606;23.388;2023-04-01T12:45:07;5.27;;;3.20;;
10260;SDS011;5175;42.606;23.388;2023-04-01T12:47:51;5.77;;;3.30;;
10260;SDS011;5175;42.606;23.388;2023-04-01T12:50:49;7.13;;;3.60;;
10260;SDS011;5175;42.606;23.388;2023-04-01T12:56:44;4.43;;;3.27;;
10260;SDS011;5175;42.606;23.388;2023-04-01T12:59:27;4.50;;;3.50;;
10260;SDS011;5175;42.606;23.388;2023-04-01T13:02:07;7.77;;;4.27;;
10260;SDS011;5175;42.606;23.388;2023-04-01T13:04:44;8.13;;;4.00;;
10260;SDS011;5175;42.606;23.388;2023-04-01T13:07:57;7.63;;;4.10;;
10260;SDS011;5175;42.606;23.388;2023-04-01T13:10:38;4.93;;;3.93;;
10260;SDS011;5175;42.606;23.388;2023-04-01T13:13:23;8.10;;;4.00;;
10260;SDS011;5175;42.606;23.388;2023-04-01T13:16:05;5.53;;;3.80;;
10260;SDS011;5175;42.606;23.388;2023-04-01T13:18:39;6.70;;;4.53;;
10260;SDS011;5175;42.606;23.388;2023-04-01T13:21:20;7.40;;;4.93;;
10260;SDS011;5175;42.606;23.388;2023-04-01T13:23:58;8.77;;;5.27;;
10260;SDS011;5175;42.606;23.388;2023-04-01T13:26:34;6.20;;;5.10;;
10260;SDS011;5175;42.606;23.388;2023-04-01T13:29:10;8.10;;;5.20;;
10260;SDS011;5175;42.606;23.388;2023-04-01T13:31:48;5.63;;;4.80;;
10260;SDS011;5175;42.606;23.388;2023-04-01T13:34:31;3.63;;;3.03;;
10260;SDS011;5175;42.606;23.388;2023-04-01T13:37:09;3.80;;;2.80;;
10260;SDS011;5175;42.606;23.388;2023-04-01T13:39:49;3.20;;;2.50;;
10260;SDS011;5175;42.606;23.388;2023-04-01T13:42:29;5.23;;;3.23;;
10260;SDS011;5175;42.606;23.388;2023-04-01T13:45:02;4.80;;;2.77;;
10260;SDS011;5175;42.606;23.388;2023-04-01T13:47:51;3.90;;;2.77;;
10260;SDS011;5175;42.606;23.388;2023-04-01T13:50:32;3.40;;;2.47;;
10260;SDS011;5175;42.606;23.388;2023-04-01T13:56:23;1.90;;;1.67;;
10260;SDS011;5175;42.606;23.388;2023-04-01T13:59:03;2.40;;;1.80;;
10260;SDS011;5175;42.606;23.388;2023-04-01T14:01:46;2.67;;;1.70;;
10260;SDS011;5175;42.606;23.388;2023-04-01T14:04:30;3.45;;;1.83;;
10260;SDS011;5175;42.606;23.388;2023-04-01T14:07:13;2.90;;;2.00;;
10260;SDS011;5175;42.606;23.388;2023-04-01T14:09:57;4.47;;;2.70;;
10260;SDS011;5175;42.606;23.388;2023-04-01T14:12:40;5.35;;;3.20;;
10260;SDS011;5175;42.606;23.388;2023-04-01T14:15:27;3.35;;;2.95;;
10260;SDS011;5175;42.606;23.388;2023-04-01T14:21:10;6.40;;;3.58;;
10260;SDS011;5175;42.606;23.388;2023-04-01T14:23:57;6.35;;;3.85;;
10260;SDS011;5175;42.606;23.388;2023-04-01T14:26:41;5.03;;;2.80;;
10260;SDS011;5175;42.606;23.388;2023-04-01T14:29:36;4.77;;;2.97;;
10260;SDS011;5175;42.606;23.388;2023-04-01T14:32:13;5.27;;;3.23;;
10260;SDS011;5175;42.606;23.388;2023-04-01T14:34:55;5.70;;;3.50;;
10260;SDS011;5175;42.606;23.388;2023-04-01T14:40:33;6.23;;;3.87;;
10260;SDS011;5175;42.606;23.388;2023-04-01T14:43:23;7.30;;;3.47;;
10260;SDS011;5175;42.606;23.388;2023-04-01T14:48:59;4.97;;;3.83;;
10260;SDS011;5175;42.606;23.388;2023-04-01T14:51:31;6.77;;;3.93;;
10260;SDS011;5175;42.606;23.388;2023-04-01T14:54:05;6.20;;;3.97;;
10260;SDS011;5175;42.606;23.388;2023-04-01T14:56:39;5.47;;;3.67;;
10260;SDS011;5175;42.606;23.388;2023-04-01T14:59:25;3.97;;;3.27;;
10260;SDS011;5175;42.606;23.388;2023-04-01T15:01:55;5.43;;;3.53;;
10260;SDS011;5175;42.606;23.388;2023-04-01T15:04:35;6.77;;;5.07;;
10260;SDS011;5175;42.606;23.388;2023-04-01T15:10:22;7.13;;;3.60;;
10260;SDS011;5175;42.606;23.388;2023-04-01T15:13:04;4.18;;;3.00;;
10260;SDS011;5175;42.606;23.388;2023-04-01T15:15:39;4.47;;;3.30;;
10260;SDS011;5175;42.606;23.388;2023-04-01T15:18:17;4.25;;;3.03;;
10260;SDS011;5175;42.606;23.388;2023-04-01T15:21:16;4.57;;;2.60;;
10260;SDS011;5175;42.606;23.388;2023-04-01T15:23:52;5.05;;;2.80;;
10260;SDS011;5175;42.606;23.388;2023-04-01T15:32:31;4.60;;;3.03;;
10260;SDS011;5175;42.606;23.388;2023-04-01T15:35:14;6.30;;;3.10;;
10260;SDS011;5175;42.606;23.388;2023-04-01T15:37:53;5.27;;;3.17;;
10260;SDS011;5175;42.606;23.388;2023-04-01T15:40:38;6.70;;;3.93;;
10260;SDS011;5175;42.606;23.388;2023-04-01T15:43:15;6.40;;;3.73;;
10260;SDS011;5175;42.606;23.388;2023-04-01T15:45:54;3.83;;;3.43;;
10260;SDS011;5175;42.606;23.388;2023-04-01T15:48:31;5.30;;;3.60;;
10260;SDS011;5175;42.606;23.388;2023-04-01T15:54:05;4.83;;;3.80;;
10260;SDS011;5175;42.606;23.388;2023-04-01T15:56:48;5.13;;;3.20;;
10260;SDS011;5175;42.606;23.388;2023-04-01T15:59:27;3.90;;;2.77;;
10260;SDS011;5175;42.606;23.388;2023-04-01T16:02:10;1.37;;;1.27;;
10260;SDS011;5175;42.606;23.388;2023-04-01T16:04:46;1.80;;;1.50;;
10260;SDS011;5175;42.606;23.388;2023-04-01T16:10:22;7.20;;;2.17;;
10260;SDS011;5175;42.606;23.388;2023-04-01T16:13:15;7.07;;;2.37;;
10260;SDS011;5175;42.606;23.388;2023-04-01T16:15:53;4.50;;;2.00;;
10260;SDS011;5175;42.606;23.388;2023-04-01T16:18:37;3.43;;;1.80;;
10260;SDS011;5175;42.606;23.388;2023-04-01T16:21:32;1.27;;;1.03;;
10260;SDS011;5175;42.606;23.388;2023-04-01T16:24:04;2.57;;;1.90;;
10260;SDS011;5175;42.606;23.388;2023-04-01T16:26:43;3.20;;;1.90;;
10260;SDS011;5175;42.606;23.388;2023-04-01T16:29:17;2.00;;;1.80;;
10260;SDS011;5175;42.606;23.388;2023-04-01T16:31:55;3.40;;;2.10;;
10260;SDS011;5175;42.606;23.388;2023-04-01T16:34:30;3.80;;;2.03;;
10260;SDS011;5175;42.606;23.388;2023-04-01T16:37:04;2.23;;;1.80;;
10260;SDS011;5175;42.606;23.388;2023-04-01T16:39:41;2.13;;;1.40;;
10260;SDS011;5175;42.606;23.388;2023-04-01T16:42:17;1.97;;;1.80;;
10260;SDS011;5175;42.606;23.388;2023-04-01T16:44:54;1.70;;;1.60;;
10260;SDS011;5175;42.606;23.388;2023-04-01T16:47:29;1.63;;;1.50;;
10260;SDS011;5175;42.606;23.388;2023-04-01T16:49:58;2.50;;;1.70;;
10260;SDS011;5175;42.606;23.388;2023-04-01T16:52:43;1.80;;;1.70;;
10260;SDS011;5175;42.606;23.388;2023-04-01T16:55:32;2.23;;;1.70;;
10260;SDS011;5175;42.606;23.388;2023-04-01T16:58:02;2.80;;;2.00;;
10260;SDS011;5175;42.606;23.388;2023-04-01T17:00:31;2.87;;;2.10;;
10260;SDS011;5175;42.606;23.388;2023-04-01T17:03:11;3.03;;;2.03;;
10260;SDS011;5175;42.606;23.388;2023-04-01T17:05:49;2.17;;;1.93;;
10260;SDS011;5175;42.606;23.388;2023-04-01T17:08:30;2.03;;;1.83;;
10260;SDS011;5175;42.606;23.388;2023-04-01T17:11:12;2.00;;;1.80;;
10260;SDS011;5175;42.606;23.388;2023-04-01T17:13:46;1.70;;;1.60;;
10260;SDS011;5175;42.606;23.388;2023-04-01T17:19:30;1.70;;;1.60;;